Terminal Aerodrome Forecast
Issued by NWS

Home | Current Version | Previous Version | Text Only | Print | Product List | Glossary On
Versions: 1 2 3 4 5 6 7 8 9 10 11 12 13 14 15 16 17
000
FTUS43 KMQT 240417 AAA
TAFSAW
TAF AMD
KSAW 240417Z 2404/2424 29010KT P6SM OVC020
     FM240800 28004KT P6SM SCT025
     FM241700 18005KT P6SM SCT120
     FM242100 15005KT P6SM BKN200=

USA.gov is the U.S. government's official web portal to all federal, state and local government web resources and services.